createdAt,value
2019-01-22T00:02:07.910Z,33.70
2019-01-22T00:04:35.247Z,32.57
2019-01-22T00:07:02.850Z,32.23
2019-01-22T00:09:30.426Z,27.67
2019-01-22T00:11:57.997Z,32.60
2019-01-22T00:14:25.243Z,29.63
2019-01-22T00:16:52.491Z,33.70
2019-01-22T00:19:19.846Z,30.63
2019-01-22T00:21:47.386Z,29.80
2019-01-22T00:24:14.665Z,31.57
2019-01-22T00:26:42.173Z,30.07
2019-01-22T00:29:09.459Z,31.20
2019-01-22T00:31:37.054Z,32.87
2019-01-22T00:34:04.410Z,31.90
2019-01-22T00:36:31.701Z,29.37
2019-01-22T00:38:58.953Z,32.23
2019-01-22T00:41:26.281Z,32.10
2019-01-22T00:43:53.995Z,29.37
2019-01-22T00:46:21.273Z,28.43
2019-01-22T00:48:48.530Z,31.10
2019-01-22T00:51:15.789Z,31.27
2019-01-22T00:53:43.141Z,33.73
2019-01-22T00:56:10.538Z,31.63
2019-01-22T00:58:38.094Z,32.83
2019-01-22T01:01:05.349Z,34.83
2019-01-22T01:03:32.634Z,28.60
2019-01-22T01:05:59.886Z,29.50
2019-01-22T01:08:27.166Z,28.80
2019-01-22T01:10:54.525Z,30.70
2019-01-22T01:13:21.787Z,36.80
2019-01-22T01:15:49.098Z,35.30
2019-01-22T01:18:16.406Z,28.30
2019-01-22T01:20:43.726Z,28.57
2019-01-22T01:23:16.796Z,35.63
2019-01-22T01:25:40.238Z,27.43
2019-01-22T01:28:07.561Z,30.00
2019-01-22T01:30:35.457Z,32.40
2019-01-22T01:33:02.857Z,32.00
2019-01-22T01:35:30.397Z,32.60
2019-01-22T01:37:57.730Z,29.37
2019-01-22T01:40:25.091Z,34.10
2019-01-22T01:42:52.413Z,33.50
2019-01-22T01:45:20.010Z,33.90
2019-01-22T01:47:47.290Z,35.80
2019-01-22T01:50:15.418Z,35.60
2019-01-22T01:52:42.960Z,36.40
2019-01-22T01:55:11.254Z,34.23
2019-01-22T01:57:38.802Z,35.67
2019-01-22T02:00:10.658Z,32.13
2019-01-22T02:02:37.915Z,35.30
2019-01-22T02:05:05.736Z,32.27
2019-01-22T02:07:33.085Z,35.70
2019-01-22T02:10:00.361Z,36.17
2019-01-22T02:12:29.419Z,31.43
2019-01-22T02:14:56.742Z,29.03
2019-01-22T02:17:31.974Z,27.80
2019-01-22T02:20:00.839Z,33.03
2019-01-22T02:22:29.734Z,31.63
2019-01-22T02:25:01.370Z,33.08
2019-01-22T02:27:30.195Z,30.10
2019-01-22T02:29:59.055Z,33.43
2019-01-22T02:32:27.946Z,29.53
2019-01-22T02:34:56.769Z,32.20
2019-01-22T02:37:34.645Z,38.27
2019-01-22T02:40:03.745Z,30.20
2019-01-22T02:42:32.570Z,32.70
2019-01-22T02:45:13.151Z,34.27
2019-01-22T02:47:41.967Z,36.87
2019-01-22T02:50:27.268Z,32.90
2019-01-22T02:52:56.090Z,31.13
2019-01-22T02:55:24.973Z,32.53
2019-01-22T02:58:11.643Z,32.60
2019-01-22T03:00:52.565Z,38.17
2019-01-22T03:03:33.078Z,31.77
2019-01-22T03:06:04.609Z,41.50
2019-01-22T03:08:39.274Z,37.63
2019-01-22T03:11:08.179Z,36.60
2019-01-22T03:13:45.852Z,35.47
2019-01-22T03:16:26.717Z,36.73
2019-01-22T03:18:55.768Z,39.07
2019-01-22T03:21:27.553Z,37.80
2019-01-22T03:24:02.087Z,43.77
2019-01-22T03:26:45.689Z,38.07
2019-01-22T03:29:14.482Z,37.63
2019-01-22T03:31:51.983Z,36.03
2019-01-22T03:34:21.028Z,40.87
2019-01-22T03:36:50.173Z,36.63
2019-01-22T03:39:21.910Z,37.33
2019-01-22T03:41:50.736Z,42.97
2019-01-22T03:44:25.193Z,38.30
2019-01-22T03:47:10.714Z,37.60
2019-01-22T03:49:39.517Z,33.20
2019-01-22T03:52:08.313Z,39.20
2019-01-22T03:54:37.134Z,40.93
2019-01-22T03:57:08.908Z,37.73
2019-01-22T03:59:36.205Z,39.97
2019-01-22T04:02:03.576Z,43.57
2019-01-22T04:04:31.146Z,37.80
2019-01-22T04:06:58.395Z,45.97
2019-01-22T04:09:27.402Z,43.90
2019-01-22T04:11:54.755Z,39.53
2019-01-22T04:14:22.069Z,39.43
2019-01-22T04:16:49.433Z,44.80
2019-01-22T04:19:17.092Z,57.03
2019-01-22T04:21:44.371Z,48.73
2019-01-22T04:24:25.345Z,47.53
2019-01-22T04:27:02.904Z,45.97
2019-01-22T04:29:34.643Z,38.33
2019-01-22T04:32:06.186Z,41.77
2019-01-22T04:34:40.906Z,41.57
2019-01-22T04:37:15.639Z,40.83
2019-01-22T04:39:44.464Z,39.43
2019-01-22T04:42:19.269Z,38.03
2019-01-22T04:44:56.935Z,32.47
2019-01-22T04:47:37.872Z,35.30
2019-01-22T04:50:21.998Z,34.57
2019-01-22T04:52:51.041Z,38.93
2019-01-22T04:55:22.529Z,37.63
2019-01-22T04:57:51.402Z,35.57
2019-01-22T05:00:20.266Z,37.37
2019-01-22T05:02:51.806Z,38.83
2019-01-22T05:05:23.544Z,39.63
2019-01-22T05:07:58.250Z,36.17
2019-01-22T05:10:32.996Z,40.50
2019-01-22T05:13:04.536Z,34.73
2019-01-22T05:15:39.490Z,34.70
2019-01-22T05:18:23.199Z,40.15
2019-01-22T05:21:08.194Z,40.67
2019-01-22T05:23:40.062Z,37.13
2019-01-22T05:26:09.165Z,37.00
2019-01-22T05:28:37.987Z,38.10
2019-01-22T05:31:06.805Z,38.07
2019-01-22T05:33:35.665Z,34.97
2019-01-22T05:36:04.491Z,42.13
2019-01-22T05:38:33.291Z,40.12
2019-01-22T05:41:04.823Z,205.03
2019-01-22T05:43:33.650Z,119.72
2019-01-22T05:46:19.018Z,58.83
2019-01-22T05:48:50.750Z,116.43
2019-01-22T05:51:19.579Z,103.17
2019-01-22T05:53:51.288Z,118.60
2019-01-22T05:56:26.002Z,98.80
2019-01-22T05:59:09.589Z,127.00
2019-01-22T06:01:38.403Z,123.70
2019-01-22T06:04:10.159Z,144.57
2019-01-22T06:06:38.981Z,82.67
2019-01-22T06:09:10.677Z,45.87
2019-01-22T06:11:42.433Z,49.40
2019-01-22T06:14:19.934Z,59.13
2019-01-22T06:17:06.841Z,58.50
2019-01-22T06:19:35.629Z,49.90
2019-01-22T06:22:10.120Z,55.70
2019-01-22T06:24:57.050Z,49.98
2019-01-22T06:27:25.505Z,54.27
2019-01-22T06:30:00.490Z,54.43
2019-01-22T06:32:38.214Z,50.20
2019-01-22T06:35:10.260Z,55.80
2019-01-22T06:37:51.002Z,57.73
2019-01-22T06:40:22.471Z,66.90
2019-01-22T06:42:51.362Z,57.90
2019-01-22T06:45:22.830Z,53.00
2019-01-22T06:47:54.834Z,52.05
2019-01-22T06:50:32.338Z,57.20
2019-01-22T06:53:01.159Z,53.73
2019-01-22T06:55:29.961Z,67.27
2019-01-22T06:58:10.702Z,57.67
2019-01-22T07:00:45.154Z,53.35
2019-01-22T07:03:29.305Z,54.77
2019-01-22T07:06:07.141Z,54.83
2019-01-22T07:08:45.229Z,58.80
2019-01-22T07:11:30.315Z,64.85
2019-01-22T07:14:02.093Z,51.23
2019-01-22T07:16:33.576Z,53.27
2019-01-22T07:19:02.389Z,55.40
2019-01-22T07:21:37.138Z,52.30
2019-01-22T07:24:05.954Z,54.97
2019-01-22T07:26:51.293Z,51.93
2019-01-22T07:29:22.774Z,45.60
2019-01-22T07:31:54.485Z,52.40
2019-01-22T07:34:39.924Z,57.63
2019-01-22T07:37:14.448Z,60.17
2019-01-22T07:39:45.950Z,66.07
2019-01-22T07:42:14.814Z,56.33
2019-01-22T07:44:46.558Z,65.93
2019-01-22T07:47:15.593Z,78.17
2019-01-22T07:49:44.484Z,61.30
2019-01-22T07:52:13.273Z,65.93
2019-01-22T07:54:53.674Z,62.23
2019-01-22T07:57:35.339Z,66.43
2019-01-22T08:00:07.309Z,61.13
2019-01-22T08:02:52.570Z,67.87
2019-01-22T08:05:31.796Z,62.97
2019-01-22T08:08:04.883Z,60.17
2019-01-22T08:10:33.701Z,60.77
2019-01-22T08:13:17.547Z,67.00
2019-01-22T08:15:46.357Z,60.70
2019-01-22T08:18:15.148Z,62.57
2019-01-22T08:20:44.049Z,57.10
2019-01-22T08:23:13.090Z,64.40
2019-01-22T08:25:48.086Z,54.87
2019-01-22T08:28:33.429Z,56.57
2019-01-22T08:31:02.497Z,61.87
2019-01-22T08:33:37.206Z,45.87
2019-01-22T08:36:06.032Z,53.53
2019-01-22T08:38:40.469Z,41.97
2019-01-22T08:41:09.290Z,46.30
2019-01-22T08:43:38.078Z,53.63
2019-01-22T08:46:06.869Z,44.50
2019-01-22T08:48:35.692Z,45.20
2019-01-22T08:51:07.412Z,40.90
2019-01-22T08:53:54.030Z,56.53
2019-01-22T08:56:25.631Z,45.93
2019-01-22T08:58:54.454Z,51.07
2019-01-22T09:01:23.281Z,38.97
2019-01-22T09:04:01.104Z,44.70
2019-01-22T09:06:29.921Z,44.90
2019-01-22T09:08:58.735Z,46.47
2019-01-22T09:11:30.798Z,45.53
2019-01-22T09:14:08.368Z,45.37
2019-01-22T09:16:39.835Z,42.63
2019-01-22T09:19:08.623Z,54.67
2019-01-22T09:21:43.594Z,48.68
2019-01-22T09:24:18.419Z,46.67
2019-01-22T09:26:47.236Z,43.43
2019-01-22T09:29:22.505Z,48.77
2019-01-22T09:31:57.329Z,49.23
2019-01-22T09:34:41.141Z,44.27
2019-01-22T09:37:09.961Z,43.60
2019-01-22T09:39:37.463Z,45.90
2019-01-22T09:42:04.806Z,49.60
2019-01-22T09:44:32.142Z,47.47
2019-01-22T09:46:59.421Z,48.87
2019-01-22T09:49:26.694Z,52.37
2019-01-22T09:51:53.980Z,56.07
2019-01-22T09:54:21.225Z,50.33
2019-01-22T09:56:48.513Z,51.13
2019-01-22T09:59:15.781Z,54.87
2019-01-22T10:01:43.135Z,53.20
2019-01-22T10:04:10.421Z,45.70
2019-01-22T10:06:37.674Z,51.60
2019-01-22T10:09:06.714Z,53.73
2019-01-22T10:11:33.993Z,52.27
2019-01-22T10:14:01.250Z,47.00
2019-01-22T10:16:28.526Z,47.77
2019-01-22T10:18:55.815Z,50.03
2019-01-22T10:21:23.090Z,50.10
2019-01-22T10:23:50.341Z,47.73
2019-01-22T10:26:17.613Z,50.13
2019-01-22T10:28:44.861Z,46.73
2019-01-22T10:31:12.146Z,47.80
2019-01-22T10:33:39.393Z,50.47
2019-01-22T10:36:06.673Z,49.37
2019-01-22T10:38:33.925Z,47.40
2019-01-22T10:41:01.218Z,45.10
2019-01-22T10:43:28.462Z,48.53
2019-01-22T10:45:55.993Z,52.00
2019-01-22T10:48:23.273Z,48.03
2019-01-22T10:50:50.770Z,45.97
2019-01-22T10:53:18.290Z,46.53
2019-01-22T10:55:45.639Z,46.73
2019-01-22T10:58:12.886Z,54.57
2019-01-22T11:00:40.325Z,42.10
2019-01-22T11:03:08.896Z,50.67
2019-01-22T11:05:37.079Z,48.03
2019-01-22T11:08:04.661Z,55.23
2019-01-22T11:10:31.922Z,55.70
2019-01-22T11:12:59.514Z,53.10
2019-01-22T11:15:27.973Z,56.57
2019-01-22T11:17:55.526Z,52.50
2019-01-22T11:20:27.281Z,59.97
2019-01-22T11:22:54.859Z,45.90
2019-01-22T11:25:23.542Z,52.03
2019-01-22T11:27:50.785Z,51.80
2019-01-22T11:30:19.239Z,44.47
2019-01-22T11:32:46.838Z,45.60
2019-01-22T11:35:15.584Z,47.50
2019-01-22T11:37:42.836Z,46.00
2019-01-22T11:40:11.657Z,47.43
2019-01-22T11:42:38.901Z,45.20
2019-01-22T11:45:07.064Z,46.13
2019-01-22T11:47:34.306Z,44.60
2019-01-22T11:50:01.559Z,44.20
2019-01-22T11:52:29.077Z,51.00
2019-01-22T11:54:56.329Z,46.30
2019-01-22T11:57:23.610Z,44.60
2019-01-22T11:59:50.893Z,44.63
2019-01-22T12:02:18.141Z,45.33
2019-01-22T12:04:45.418Z,50.77
2019-01-22T12:07:12.934Z,54.10
2019-01-22T12:09:40.480Z,46.07
2019-01-22T12:12:07.825Z,43.00
2019-01-22T12:14:35.322Z,42.80
2019-01-22T12:17:02.601Z,43.23
2019-01-22T12:19:29.850Z,42.10
2019-01-22T12:21:57.163Z,48.10
2019-01-22T12:24:24.537Z,41.30
2019-01-22T12:26:51.817Z,43.70
2019-01-22T12:29:19.069Z,47.07
2019-01-22T12:31:46.349Z,43.33
2019-01-22T12:34:13.598Z,40.17
2019-01-22T12:36:40.873Z,42.60
2019-01-22T12:39:08.449Z,43.80
2019-01-22T12:41:35.747Z,41.63
2019-01-22T12:44:03.419Z,41.10
2019-01-22T12:46:30.670Z,44.10
2019-01-22T12:48:57.944Z,43.80
2019-01-22T12:51:25.197Z,42.40
2019-01-22T12:53:52.476Z,41.33
2019-01-22T12:56:19.730Z,43.03
2019-01-22T12:58:47.014Z,40.57
2019-01-22T13:01:14.260Z,41.57
2019-01-22T13:03:41.550Z,47.00
2019-01-22T13:06:08.809Z,37.60
2019-01-22T13:08:36.327Z,39.33
2019-01-22T13:11:03.600Z,39.47
2019-01-22T13:13:30.859Z,42.90
2019-01-22T13:15:58.133Z,52.80
2019-01-22T13:18:25.389Z,52.90
2019-01-22T13:20:52.688Z,40.30
2019-01-22T13:23:20.245Z,38.20
2019-01-22T13:25:47.594Z,43.10
2019-01-22T13:28:14.845Z,45.93
2019-01-22T13:30:42.150Z,39.70
2019-01-22T13:33:09.697Z,41.33
2019-01-22T13:35:36.982Z,48.30
2019-01-22T13:38:04.325Z,41.57
2019-01-22T13:40:31.578Z,41.50
2019-01-22T13:42:58.853Z,38.70
2019-01-22T13:45:27.477Z,43.40
2019-01-22T13:47:55.230Z,37.50
2019-01-22T13:50:22.734Z,41.27
2019-01-22T13:52:50.002Z,46.80
2019-01-22T13:55:18.732Z,41.40
2019-01-22T13:57:46.023Z,45.20
2019-01-22T14:00:17.491Z,45.20
2019-01-22T14:02:44.741Z,49.33
2019-01-22T14:05:12.018Z,46.33
2019-01-22T14:07:39.537Z,44.13
2019-01-22T14:10:10.865Z,42.83
2019-01-22T14:12:38.117Z,51.73
2019-01-22T14:15:06.938Z,49.10
2019-01-22T14:17:34.270Z,45.63
2019-01-22T14:20:01.559Z,47.60
2019-01-22T14:22:29.058Z,53.03
2019-01-22T14:24:56.329Z,51.60
2019-01-22T14:27:23.583Z,52.30
2019-01-22T14:29:50.860Z,44.90
2019-01-22T14:32:18.118Z,48.87
2019-01-22T14:34:46.243Z,52.10
2019-01-22T14:37:13.519Z,51.93
2019-01-22T14:39:40.797Z,59.53
2019-01-22T14:42:08.082Z,51.93
2019-01-22T14:44:35.329Z,49.87
2019-01-22T14:47:02.605Z,54.17
2019-01-22T14:49:29.857Z,55.00
2019-01-22T14:51:57.154Z,49.30
2019-01-22T14:54:24.405Z,49.00
2019-01-22T14:56:51.658Z,57.30
2019-01-22T14:59:18.938Z,56.53
2019-01-22T15:01:46.194Z,50.10
2019-01-22T15:04:13.451Z,51.87
2019-01-22T15:06:40.812Z,54.50
2019-01-22T15:09:08.305Z,54.67
2019-01-22T15:11:35.587Z,53.47
2019-01-22T15:14:02.834Z,54.90
2019-01-22T15:16:30.353Z,52.37
2019-01-22T15:18:57.604Z,52.07
2019-01-22T15:21:24.889Z,48.93
2019-01-22T15:23:52.174Z,50.23
2019-01-22T15:26:19.673Z,56.77
2019-01-22T15:28:46.965Z,52.37
2019-01-22T15:31:14.355Z,54.90
2019-01-22T15:33:41.634Z,72.53
2019-01-22T15:36:08.921Z,53.73
2019-01-22T15:38:36.421Z,51.97
2019-01-22T15:41:03.701Z,62.67
2019-01-22T15:43:30.948Z,49.30
2019-01-22T15:45:58.234Z,58.17
2019-01-22T15:48:25.514Z,54.97
2019-01-22T15:50:52.795Z,55.43
2019-01-22T15:53:20.046Z,52.40
2019-01-22T15:55:48.252Z,52.97
2019-01-22T15:58:15.722Z,55.23
2019-01-22T16:00:43.078Z,59.20
2019-01-22T16:03:10.335Z,58.80
2019-01-22T16:05:37.611Z,54.47
2019-01-22T16:08:06.527Z,59.90
2019-01-22T16:10:33.981Z,58.17
2019-01-22T16:13:01.270Z,55.00
2019-01-22T16:15:28.838Z,62.53
2019-01-22T16:17:56.438Z,57.40
2019-01-22T16:20:24.585Z,51.70
2019-01-22T16:22:51.837Z,52.80
2019-01-22T16:25:19.451Z,57.70
2019-01-22T16:27:46.700Z,60.83
2019-01-22T16:30:18.103Z,59.77
2019-01-22T16:32:45.621Z,58.00
2019-01-22T16:35:14.169Z,67.40
2019-01-22T16:37:41.456Z,57.60
2019-01-22T16:40:10.235Z,56.97
2019-01-22T16:42:37.745Z,58.90
2019-01-22T16:45:06.810Z,68.07
2019-01-22T16:47:34.307Z,60.90
2019-01-22T16:50:01.649Z,59.73
2019-01-22T16:52:28.909Z,60.93
2019-01-22T16:54:56.442Z,57.10
2019-01-22T16:57:23.694Z,60.43
2019-01-22T16:59:51.202Z,67.07
2019-01-22T17:02:18.714Z,55.40
2019-01-22T17:04:45.966Z,59.97
2019-01-22T17:07:13.252Z,54.93
2019-01-22T17:09:40.501Z,57.87
2019-01-22T17:12:08.010Z,59.63
2019-01-22T17:14:35.354Z,55.53
2019-01-22T17:17:02.625Z,54.90
2019-01-22T17:19:29.896Z,59.43
2019-01-22T17:21:57.242Z,53.67
2019-01-22T17:24:24.825Z,59.17
2019-01-22T17:26:52.154Z,53.33
2019-01-22T17:29:19.663Z,56.10
2019-01-22T17:32:04.596Z,57.10
2019-01-22T17:34:34.136Z,48.93
2019-01-22T17:37:01.627Z,53.83
2019-01-22T17:39:28.927Z,51.30
2019-01-22T17:41:56.181Z,52.27
2019-01-22T17:44:23.669Z,51.67
2019-01-22T17:46:50.947Z,53.33
2019-01-22T17:49:18.231Z,56.33
2019-01-22T17:51:45.486Z,49.77
2019-01-22T17:54:13.013Z,55.77
2019-01-22T17:56:40.253Z,59.50
2019-01-22T17:59:07.539Z,55.20
2019-01-22T18:01:35.033Z,68.27
2019-01-22T18:04:02.309Z,57.93
2019-01-22T18:06:29.568Z,59.93
2019-01-22T18:08:57.100Z,56.90
2019-01-22T18:11:24.705Z,54.73
2019-01-22T18:13:52.229Z,51.43
2019-01-22T18:16:19.723Z,52.73
2019-01-22T18:18:47.006Z,48.33
2019-01-22T18:21:14.260Z,47.53
2019-01-22T18:23:41.533Z,54.83
2019-01-22T18:26:08.819Z,46.60
2019-01-22T18:28:36.169Z,53.60
2019-01-22T18:31:03.454Z,54.90
2019-01-22T18:33:30.706Z,50.00
2019-01-22T18:35:57.993Z,48.33
2019-01-22T18:38:25.245Z,50.80
2019-01-22T18:40:52.499Z,48.30
2019-01-22T18:43:19.777Z,50.87
2019-01-22T18:45:47.277Z,51.50
2019-01-22T18:48:14.560Z,52.33
2019-01-22T18:50:41.861Z,49.07
2019-01-22T18:53:09.168Z,50.03
2019-01-22T18:55:36.705Z,45.20
2019-01-22T18:58:04.057Z,45.00
2019-01-22T19:00:31.579Z,46.37
2019-01-22T19:02:59.095Z,46.10
2019-01-22T19:05:26.370Z,45.93
2019-01-22T19:07:53.722Z,42.40
2019-01-22T19:10:22.540Z,38.77
2019-01-22T19:12:50.045Z,44.20
2019-01-22T19:15:17.766Z,44.43
2019-01-22T19:17:45.055Z,49.40
2019-01-22T19:20:12.973Z,46.87
2019-01-22T19:22:40.250Z,43.73
2019-01-22T19:25:09.322Z,44.77
2019-01-22T19:27:36.841Z,42.57
2019-01-22T19:30:08.537Z,48.20
2019-01-22T19:32:35.838Z,40.67
2019-01-22T19:35:03.446Z,46.00
2019-01-22T19:37:30.988Z,47.60
2019-01-22T19:39:58.270Z,43.80
2019-01-22T19:42:25.766Z,44.47
2019-01-22T19:44:53.054Z,43.30
2019-01-22T19:47:20.330Z,44.80
2019-01-22T19:49:47.614Z,42.17
2019-01-22T19:52:14.889Z,41.33
2019-01-22T19:54:42.162Z,45.27
2019-01-22T19:57:09.416Z,44.70
2019-01-22T19:59:36.942Z,46.37
2019-01-22T20:02:05.204Z,43.53
2019-01-22T20:04:32.493Z,46.20
2019-01-22T20:06:59.770Z,43.67
2019-01-22T20:09:27.127Z,44.13
2019-01-22T20:11:54.677Z,45.03
2019-01-22T20:14:21.935Z,34.73
2019-01-22T20:16:49.205Z,42.60
2019-01-22T20:19:16.750Z,49.90
2019-01-22T20:21:44.101Z,42.97
2019-01-22T20:24:11.374Z,42.57
2019-01-22T20:26:38.626Z,43.97
2019-01-22T20:29:06.153Z,49.17
2019-01-22T20:31:33.690Z,44.20
2019-01-22T20:34:00.950Z,42.13
2019-01-22T20:36:28.231Z,43.30
2019-01-22T20:38:55.517Z,41.57
2019-01-22T20:41:22.797Z,42.83
2019-01-22T20:43:50.042Z,38.43
2019-01-22T20:46:17.461Z,44.33
2019-01-22T20:48:44.982Z,46.53
2019-01-22T20:51:12.686Z,41.53
2019-01-22T20:53:39.963Z,44.53
2019-01-22T20:56:07.497Z,41.13
2019-01-22T20:58:40.565Z,45.97
2019-01-22T21:01:03.917Z,41.67
2019-01-22T21:03:31.456Z,42.10
2019-01-22T21:05:58.778Z,44.00
2019-01-22T21:08:26.129Z,42.27
2019-01-22T21:10:53.386Z,41.80
2019-01-22T21:13:20.657Z,43.80
2019-01-22T21:15:47.938Z,51.50
2019-01-22T21:18:15.222Z,42.40
2019-01-22T21:20:42.477Z,39.70
2019-01-22T21:23:09.763Z,48.20
2019-01-22T21:25:37.263Z,45.47
2019-01-22T21:28:04.717Z,40.73
2019-01-22T21:30:33.105Z,39.90
2019-01-22T21:33:00.525Z,42.07
2019-01-22T21:35:27.805Z,38.20
2019-01-22T21:37:55.097Z,40.53
2019-01-22T21:40:22.344Z,41.37
2019-01-22T21:42:49.732Z,39.27
2019-01-22T21:45:20.838Z,36.37
2019-01-22T21:47:48.366Z,40.70
2019-01-22T21:50:16.060Z,44.87
2019-01-22T21:52:43.415Z,44.10
2019-01-22T21:55:14.657Z,89.30
2019-01-22T21:57:42.186Z,53.87
2019-01-22T22:00:14.167Z,42.70
2019-01-22T22:02:41.449Z,55.13
2019-01-22T22:05:09.538Z,48.47
2019-01-22T22:07:36.826Z,44.40
2019-01-22T22:10:05.618Z,50.33
2019-01-22T22:12:32.899Z,51.87
2019-01-22T22:15:00.276Z,45.97
2019-01-22T22:17:27.590Z,51.87
2019-01-22T22:19:54.842Z,51.77
2019-01-22T22:22:22.099Z,51.93
2019-01-22T22:24:49.373Z,44.30
2019-01-22T22:27:16.647Z,48.67
2019-01-22T22:29:43.930Z,45.73
2019-01-22T22:32:11.173Z,51.27
2019-01-22T22:34:38.771Z,49.07
2019-01-22T22:37:06.267Z,46.63
2019-01-22T22:39:33.792Z,41.47
2019-01-22T22:42:01.049Z,45.20
2019-01-22T22:44:28.589Z,50.27
2019-01-22T22:46:55.842Z,42.37
2019-01-22T22:49:23.122Z,45.23
2019-01-22T22:51:50.479Z,46.77
2019-01-22T22:54:17.826Z,46.77
2019-01-22T22:56:45.103Z,51.53
2019-01-22T22:59:12.374Z,50.53
2019-01-22T23:01:39.659Z,51.03
2019-01-22T23:04:06.909Z,59.10
2019-01-22T23:06:34.163Z,53.90
2019-01-22T23:09:01.718Z,54.40
2019-01-22T23:11:28.965Z,47.97
2019-01-22T23:13:56.245Z,52.43
2019-01-22T23:16:23.809Z,47.77
2019-01-22T23:18:51.087Z,47.57
2019-01-22T23:21:18.417Z,61.83
2019-01-22T23:23:45.694Z,46.37
2019-01-22T23:26:12.949Z,46.80
2019-01-22T23:28:40.482Z,52.97
2019-01-22T23:31:07.993Z,47.17
2019-01-22T23:33:35.482Z,47.73
2019-01-22T23:36:02.762Z,48.40
2019-01-22T23:38:30.033Z,49.63
2019-01-22T23:40:57.369Z,52.57
2019-01-22T23:43:24.709Z,50.83
2019-01-22T23:45:51.998Z,48.70
2019-01-22T23:48:19.249Z,57.57
2019-01-22T23:50:46.746Z,50.53
2019-01-22T23:53:14.026Z,55.10
2019-01-22T23:55:41.546Z,49.60
2019-01-22T23:58:08.902Z,56.17
